Time;durP1;ratioP1;P1;durP2;ratioP2;P2;SDS_P1;SDS_P2;PMS_P1;PMS_P2;Temp;Humidity;BMP_temperature;BMP_pressure;BME280_temperature;BME280_humidity;BME280_pressure;Samples;Min_cycle;Max_cycle;Signal;HPM_P1;HPM_P2
2022/11/03 00:01:49;;;;;;;7.75;2.63;;;9.40;99.90;;;;;;5100539;28;20473;-79
2022/11/03 00:04:17;;;;;;;8.05;2.65;;;9.40;99.90;;;;;;5089003;28;20031;-80
2022/11/03 00:06:44;;;;;;;6.80;2.75;;;9.40;99.90;;;;;;5090269;28;20035;-81
2022/11/03 00:09:12;;;;;;;6.28;2.45;;;9.30;99.90;;;;;;5081877;28;20389;-80
2022/11/03 00:11:39;;;;;;;6.28;2.50;;;9.40;99.90;;;;;;5094586;28;20020;-80
2022/11/03 00:14:06;;;;;;;7.28;2.80;;;9.40;99.90;;;;;;5083998;28;20107;-79
2022/11/03 00:16:32;;;;;;;6.25;2.38;;;9.40;99.90;;;;;;5097950;28;20030;-79
2022/11/03 00:18:58;;;;;;;7.00;3.13;;;9.40;99.90;;;;;;5083041;28;20089;-78
2022/11/03 00:21:23;;;;;;;6.68;2.80;;;9.40;99.90;;;;;;5094795;28;20063;-80
2022/11/03 00:23:50;;;;;;;5.82;2.30;;;9.40;99.90;;;;;;5092966;28;20121;-78
2022/11/03 00:26:20;;;;;;;7.63;2.22;;;9.30;99.90;;;;;;5077405;28;20031;-79
2022/11/03 00:28:48;;;;;;;8.45;2.53;;;9.30;99.90;;;;;;5089697;28;20396;-78
2022/11/03 00:31:21;;;;;;;7.88;2.40;;;9.30;99.90;;;;;;5080361;28;20024;-79
2022/11/03 00:33:47;;;;;;;7.70;2.50;;;9.20;99.90;;;;;;5081505;28;20029;-79
2022/11/03 00:36:18;;;;;;;5.40;2.80;;;9.20;99.90;;;;;;5106489;28;20024;-78
2022/11/03 00:38:45;;;;;;;5.28;2.60;;;9.10;99.90;;;;;;5088439;28;20032;-81
2022/11/03 00:41:11;;;;;;;5.30;2.17;;;9.10;99.90;;;;;;5096690;28;20031;-78
2022/11/03 00:43:37;;;;;;;6.05;2.45;;;9.10;99.90;;;;;;5111868;28;20020;-78
2022/11/03 00:46:05;;;;;;;6.05;2.20;;;9.10;99.90;;;;;;5095877;28;20019;-78
2022/11/03 00:48:32;;;;;;;6.20;2.10;;;9.10;99.90;;;;;;5104192;28;20093;-78
2022/11/03 00:51:10;;;;;;;7.22;2.33;;;8.90;99.90;;;;;;5090685;28;20080;-78
2022/11/03 00:53:50;;;;;;;6.20;2.08;;;8.90;99.90;;;;;;5079853;28;20039;-77
2022/11/03 00:56:18;;;;;;;6.30;2.50;;;8.90;99.90;;;;;;5087194;28;20054;-78
2022/11/03 00:58:44;;;;;;;4.00;2.08;;;8.90;99.90;;;;;;5094414;28;20028;-79
2022/11/03 01:01:16;;;;;;;5.75;2.28;;;8.90;99.90;;;;;;5091955;28;20096;-78
2022/11/03 01:09:13;;;;;;;7.95;2.50;;;9.00;99.90;;;;;;5097771;28;20042;-80
2022/11/03 01:11:48;;;;;;;4.40;1.98;;;8.90;99.90;;;;;;5080210;28;20102;-76
2022/11/03 01:14:14;;;;;;;6.43;1.88;;;8.90;99.90;;;;;;5092648;28;20047;-79
2022/11/03 01:16:40;;;;;;;5.70;2.05;;;8.90;99.90;;;;;;5114701;28;20024;-78
2022/11/03 01:19:07;;;;;;;6.82;2.08;;;8.90;99.90;;;;;;5095910;28;20504;-79
2022/11/03 01:21:33;;;;;;;4.93;2.42;;;8.90;99.90;;;;;;5097971;28;20063;-79
2022/11/03 01:24:03;;;;;;;8.73;2.10;;;8.80;99.90;;;;;;5090251;28;20024;-80
2022/11/03 01:26:29;;;;;;;3.63;2.38;;;8.90;99.90;;;;;;5086381;28;20076;-79
2022/11/03 01:28:57;;;;;;;5.05;2.00;;;8.90;99.90;;;;;;5096054;28;20043;-80
2022/11/03 01:31:23;;;;;;;4.85;2.03;;;8.80;99.90;;;;;;5078585;28;20055;-79
2022/11/03 01:33:52;;;;;;;6.07;2.38;;;8.80;99.90;;;;;;5064206;28;20465;-79
2022/11/03 01:36:18;;;;;;;8.80;2.25;;;8.70;99.90;;;;;;5095556;28;20027;-79
2022/11/03 01:38:44;;;;;;;6.35;1.88;;;8.70;99.90;;;;;;5083788;28;20086;-80
2022/11/03 01:41:14;;;;;;;5.72;2.00;;;8.70;99.90;;;;;;5093555;28;20052;-80
2022/11/03 01:43:41;;;;;;;6.00;1.95;;;8.70;99.90;;;;;;5079184;28;20019;-81
2022/11/03 01:46:11;;;;;;;5.65;2.10;;;8.70;99.90;;;;;;5095767;28;20020;-80
2022/11/03 01:48:41;;;;;;;5.95;2.63;;;8.60;99.90;;;;;;5084710;28;20032;-79
2022/11/03 01:51:10;;;;;;;7.15;2.50;;;8.60;99.90;;;;;;5090989;28;20457;-77
2022/11/03 01:53:41;;;;;;;4.22;1.85;;;8.50;99.90;;;;;;5078857;28;20448;-78
2022/11/03 01:56:08;;;;;;;4.95;1.90;;;8.40;99.90;;;;;;5088220;28;20115;-80
2022/11/03 01:58:36;;;;;;;5.47;2.10;;;8.40;99.90;;;;;;5104511;28;20028;-77
2022/11/03 02:01:02;;;;;;;4.63;2.63;;;8.40;99.90;;;;;;5098320;28;20071;-78
2022/11/03 02:03:33;;;;;;;3.58;1.83;;;8.40;99.90;;;;;;5091378;28;20511;-78
2022/11/03 02:06:00;;;;;;;5.17;2.27;;;8.40;99.90;;;;;;5081296;28;20023;-80
2022/11/03 02:08:46;;;;;;;6.07;2.30;;;8.50;99.90;;;;;;5085227;28;20477;-79
2022/11/03 02:13:57;;;;;;;3.83;2.05;;;8.40;99.90;;;;;;5097465;28;20026;-89
2022/11/03 02:16:24;;;;;;;5.65;2.00;;;8.40;99.90;;;;;;5082309;28;20035;-85
2022/11/03 02:18:52;;;;;;;40.67;16.73;;;8.30;99.90;;;;;;5096515;28;20556;-89
2022/11/03 02:21:57;;;;;;;10.07;4.10;;;8.40;99.90;;;;;;5079172;28;20024;-82
2022/11/03 02:24:35;;;;;;;6.65;2.58;;;8.40;99.90;;;;;;5094956;28;20081;-78
2022/11/03 02:27:00;;;;;;;6.43;2.45;;;8.40;99.90;;;;;;5080362;28;20083;-78
2022/11/03 02:29:26;;;;;;;7.57;2.72;;;8.30;99.90;;;;;;5091355;28;20493;-80
2022/11/03 02:32:06;;;;;;;6.60;2.30;;;8.30;99.90;;;;;;5075647;28;20032;-79
2022/11/03 02:35:02;;;;;;;5.70;1.83;;;8.30;99.90;;;;;;5086066;28;20030;-80
2022/11/03 02:37:36;;;;;;;5.70;1.88;;;8.10;99.90;;;;;;5077256;28;20075;-80
2022/11/03 02:40:09;;;;;;;6.55;2.00;;;8.10;99.90;;;;;;5097974;28;20511;-80
2022/11/03 02:42:36;;;;;;;5.05;1.92;;;8.20;99.90;;;;;;5097007;28;20028;-80
2022/11/03 02:45:07;;;;;;;3.38;1.90;;;8.10;99.90;;;;;;5106062;28;20036;-79
2022/11/03 02:47:35;;;;;;;7.22;1.67;;;8.20;99.90;;;;;;5079598;28;20032;-80
2022/11/03 02:50:07;;;;;;;4.93;2.28;;;8.20;99.90;;;;;;5091410;28;20460;-80
2022/11/03 02:52:51;;;;;;;5.13;1.50;;;8.20;99.90;;;;;;5083267;28;20024;-80
2022/11/03 02:55:38;;;;;;;2.95;1.70;;;8.10;99.90;;;;;;5091155;28;20027;-79
2022/11/03 02:58:06;;;;;;;4.20;2.00;;;8.10;99.90;;;;;;5077591;28;20043;-78
2022/11/03 03:00:41;;;;;;;5.10;1.92;;;8.20;99.90;;;;;;5078110;28;20047;-78
2022/11/03 03:03:36;;;;;;;4.35;1.90;;;8.20;99.90;;;;;;5081328;28;20020;-81
2022/11/03 03:06:12;;;;;;;5.63;1.90;;;8.20;99.90;;;;;;5096970;28;20362;-79
2022/11/03 03:08:43;;;;;;;6.05;2.15;;;8.20;99.90;;;;;;5082367;28;20032;-81
2022/11/03 03:11:11;;;;;;;4.10;1.98;;;8.20;99.90;;;;;;5094225;28;20372;-78
2022/11/03 03:13:38;;;;;;;3.45;1.65;;;8.30;99.90;;;;;;5113658;28;20031;-79
2022/11/03 03:16:18;;;;;;;3.67;1.70;;;8.20;99.90;;;;;;5098996;28;20027;-78
2022/11/03 03:19:01;;;;;;;3.75;1.75;;;8.20;99.90;;;;;;5098492;28;20472;-79
2022/11/03 03:21:34;;;;;;;8.55;1.50;;;8.30;99.90;;;;;;5116160;28;20036;-78
2022/11/03 03:24:06;;;;;;;5.15;1.77;;;8.20;99.90;;;;;;5092704;28;20020;-78
2022/11/03 03:26:36;;;;;;;3.40;2.00;;;8.20;99.90;;;;;;5107337;28;20031;-79
2022/11/03 03:29:16;;;;;;;4.95;1.60;;;8.20;99.90;;;;;;5084624;28;20500;-80
2022/11/03 03:31:48;;;;;;;5.00;1.90;;;8.20;99.90;;;;;;5096034;28;20024;-80
2022/11/03 03:34:17;;;;;;;3.95;1.70;;;8.20;99.90;;;;;;5096369;28;20029;-78
2022/11/03 03:36:45;;;;;;;7.45;1.80;;;8.20;99.90;;;;;;5097884;28;20032;-77
2022/11/03 03:39:13;;;;;;;4.32;1.60;;;8.20;99.90;;;;;;5097588;28;20106;-79
2022/11/03 03:41:40;;;;;;;4.32;1.60;;;8.10;99.90;;;;;;5094795;28;20020;-78
2022/11/03 03:44:09;;;;;;;4.75;1.60;;;8.20;99.90;;;;;;5098150;28;20026;-79
2022/11/03 03:46:41;;;;;;;3.42;1.55;;;8.10;99.90;;;;;;5098639;28;20024;-79
2022/11/03 03:49:07;;;;;;;5.18;1.52;;;8.10;99.90;;;;;;5099225;28;20119;-80
2022/11/03 03:51:34;;;;;;;3.35;1.73;;;8.10;99.90;;;;;;5098568;28;20031;-79
2022/11/03 03:53:59;;;;;;;3.58;1.70;;;8.10;99.90;;;;;;5098184;28;20024;-78
2022/11/03 03:56:47;;;;;;;5.72;1.80;;;8.00;99.90;;;;;;5097852;28;20134;-78
2022/11/03 03:59:13;;;;;;;7.72;1.88;;;8.00;99.90;;;;;;5097368;28;20388;-78
2022/11/03 04:01:39;;;;;;;5.82;1.65;;;8.00;99.90;;;;;;5112561;28;20095;-79
2022/11/03 04:04:04;;;;;;;6.85;1.85;;;8.00;99.90;;;;;;5102365;28;20020;-78
2022/11/03 04:06:30;;;;;;;4.00;1.75;;;7.90;99.90;;;;;;5115474;28;20016;-81
2022/11/03 04:08:55;;;;;;;3.67;1.67;;;8.00;99.90;;;;;;5116417;28;20031;-79
2022/11/03 04:22:17;;;;;;;4.80;1.90;;;8.00;99.90;;;;;;5116077;28;20034;-88
2022/11/03 04:24:45;;;;;;;4.32;1.73;;;7.90;99.90;;;;;;5117064;28;20015;-90
2022/11/03 04:27:27;;;;;;;3.65;1.80;;;8.00;99.90;;;;;;5098742;28;20073;-81
2022/11/03 04:30:11;;;;;;;5.70;1.80;;;8.00;99.90;;;;;;5095280;28;20052;-87
2022/11/03 04:32:37;;;;;;;5.93;1.70;;;8.00;99.90;;;;;;5094108;28;20021;-86
2022/11/03 04:35:18;;;;;;;4.63;1.70;;;8.00;99.90;;;;;;5094014;28;20043;-86
2022/11/03 04:37:46;;;;;;;3.67;1.60;;;8.00;99.90;;;;;;5076717;28;20040;-87
2022/11/03 04:40:15;;;;;;;5.93;1.75;;;8.00;99.90;;;;;;5075001;28;20032;-82
2022/11/03 04:42:41;;;;;;;1.80;1.35;;;7.90;99.90;;;;;;5075905;28;20031;-88
2022/11/03 04:45:21;;;;;;;4.10;1.58;;;7.90;99.90;;;;;;5074858;28;20431;-86
2022/11/03 04:47:47;;;;;;;2.13;1.45;;;8.00;99.90;;;;;;5094835;28;20059;-86
2022/11/03 04:50:21;;;;;;;6.20;1.98;;;8.00;99.90;;;;;;5095197;28;20121;-81
2022/11/03 04:52:50;;;;;;;5.63;1.92;;;8.00;99.90;;;;;;5094470;28;20028;-87
2022/11/03 04:55:18;;;;;;;6.03;2.00;;;7.90;99.90;;;;;;5093913;28;20024;-88
2022/11/03 04:57:44;;;;;;;4.45;1.88;;;7.90;99.90;;;;;;5095687;28;20086;-87
2022/11/03 05:00:19;;;;;;;5.28;2.03;;;7.90;99.90;;;;;;5094793;28;20024;-87
2022/11/03 05:02:48;;;;;;;5.88;2.08;;;7.90;99.90;;;;;;5095160;28;20389;-88
2022/11/03 05:05:25;;;;;;;4.65;1.80;;;7.90;99.90;;;;;;5095051;28;20032;-80
2022/11/03 05:07:53;;;;;;;6.05;1.83;;;7.80;99.90;;;;;;5094542;28;20408;-88
2022/11/03 05:10:22;;;;;;;4.85;1.77;;;7.90;99.90;;;;;;5093860;28;20036;-88
2022/11/03 05:12:49;;;;;;;5.28;1.88;;;7.90;99.90;;;;;;5094450;28;20024;-88
2022/11/03 05:15:27;;;;;;;4.60;1.88;;;7.90;99.90;;;;;;5093635;28;20020;-81
2022/11/03 05:17:52;;;;;;;3.78;1.77;;;7.90;99.90;;;;;;5094202;28;20194;-89
2022/11/03 05:20:44;;;;;;;5.15;1.55;;;7.90;99.90;;;;;;5093665;28;20024;-88
2022/11/03 05:23:10;;;;;;;5.32;2.20;;;7.90;99.90;;;;;;5094058;28;20496;-87
2022/11/03 05:25:39;;;;;;;7.38;2.03;;;7.80;99.90;;;;;;5093884;28;20032;-90
2022/11/03 05:28:19;;;;;;;3.67;2.05;;;7.60;99.90;;;;;;5095085;28;20032;-89
2022/11/03 05:30:46;;;;;;;5.95;2.35;;;7.60;99.90;;;;;;5114107;28;20053;-89
2022/11/03 05:33:19;;;;;;;6.28;2.20;;;7.60;99.90;;;;;;5115305;28;20023;-89
2022/11/03 05:35:45;;;;;;;10.05;2.75;;;7.50;99.90;;;;;;5115349;28;20047;-89
2022/11/03 05:38:14;;;;;;;5.40;2.38;;;7.50;99.90;;;;;;5097470;28;20070;-90
2022/11/03 05:40:40;;;;;;;6.00;2.40;;;7.50;99.90;;;;;;5115188;28;20377;-87
2022/11/03 05:43:09;;;;;;;6.80;2.55;;;7.50;99.90;;;;;;5096909;28;20084;-87
2022/11/03 05:45:35;;;;;;;6.40;2.00;;;7.60;99.90;;;;;;5114003;28;20462;-87
2022/11/03 05:48:09;;;;;;;5.10;2.33;;;7.70;99.90;;;;;;5115158;28;20031;-86
2022/11/03 05:50:35;;;;;;;4.78;2.10;;;7.80;99.90;;;;;;5114618;28;20655;-86
2022/11/03 05:53:12;;;;;;;6.45;2.20;;;7.80;99.90;;;;;;5096710;28;20032;-87
2022/11/03 05:55:39;;;;;;;5.53;2.30;;;8.00;99.90;;;;;;5114140;28;20027;-86
2022/11/03 05:58:20;;;;;;;9.15;2.33;;;8.00;99.90;;;;;;5096921;28;20031;-86
2022/11/03 06:00:46;;;;;;;5.97;2.17;;;8.00;99.90;;;;;;5097138;28;20027;-86
2022/11/03 06:03:24;;;;;;;8.13;2.20;;;8.00;99.90;;;;;;5114771;28;20027;-86
2022/11/03 06:05:50;;;;;;;4.72;2.03;;;7.80;99.90;;;;;;5096468;28;20038;-89
2022/11/03 06:08:24;;;;;;;6.35;2.35;;;7.80;99.90;;;;;;5096430;28;20436;-83
2022/11/03 06:10:55;;;;;;;3.17;1.75;;;7.70;99.90;;;;;;5115104;28;20057;-90
2022/11/03 06:13:34;;;;;;;7.40;2.28;;;7.70;99.90;;;;;;5096466;28;20031;-88
2022/11/03 06:16:37;;;;;;;3.67;1.55;;;7.70;99.90;;;;;;5114738;28;20028;-89
2022/11/03 06:19:31;;;;;;;4.80;2.38;;;7.80;99.90;;;;;;5096412;28;20042;-88
2022/11/03 06:22:21;;;;;;;5.28;1.85;;;7.80;99.90;;;;;;5096055;28;20023;-89
2022/11/03 06:24:47;;;;;;;4.20;1.80;;;7.80;99.90;;;;;;5114534;28;20142;-89
2022/11/03 06:27:21;;;;;;;2.88;1.83;;;7.80;99.90;;;;;;5096472;28;20034;-89
2022/11/03 06:29:56;;;;;;;4.88;2.30;;;7.80;99.90;;;;;;5096426;28;20051;-89
2022/11/03 06:32:21;;;;;;;5.65;2.10;;;7.90;99.90;;;;;;5095815;28;20020;-88
2022/11/03 06:34:50;;;;;;;5.65;1.85;;;7.70;99.90;;;;;;5113922;28;20471;-89
2022/11/03 06:37:23;;;;;;;6.25;2.28;;;7.80;99.90;;;;;;5095772;28;20027;-89
2022/11/03 06:39:52;;;;;;;4.20;1.75;;;7.80;99.90;;;;;;5114480;28;20119;-89
2022/11/03 06:42:20;;;;;;;5.15;2.03;;;7.80;99.90;;;;;;5095967;28;20077;-87
2022/11/03 06:44:49;;;;;;;5.53;1.98;;;7.80;99.90;;;;;;5114250;28;20529;-89
2022/11/03 06:47:28;;;;;;;5.25;1.95;;;7.90;99.90;;;;;;5114251;28;20453;-90
2022/11/03 06:49:57;;;;;;;4.50;1.98;;;7.90;99.90;;;;;;5106825;28;20030;-89
2022/11/03 06:52:25;;;;;;;4.05;2.15;;;7.80;99.90;;;;;;5075233;28;20111;-88
2022/11/03 06:55:07;;;;;;;5.15;2.00;;;7.80;99.90;;;;;;5076187;28;20453;-87
2022/11/03 06:57:45;;;;;;;3.03;1.65;;;7.80;99.90;;;;;;5075281;28;20032;-87
2022/11/03 07:00:21;;;;;;;5.07;2.40;;;7.90;99.90;;;;;;5076129;28;20385;-84
2022/11/03 07:03:21;;;;;;;5.43;2.30;;;7.90;99.90;;;;;;5075866;28;20081;-85
2022/11/03 07:05:46;;;;;;;5.75;2.03;;;7.90;99.90;;;;;;5075456;28;20020;-85
2022/11/03 07:08:36;;;;;;;3.55;1.88;;;8.00;99.90;;;;;;5075570;28;20120;-85
2022/11/03 07:11:15;;;;;;;5.80;2.30;;;8.10;99.90;;;;;;5093466;28;20095;-85
2022/11/03 07:13:40;;;;;;;3.10;1.88;;;8.10;99.90;;;;;;5074793;28;20065;-85
2022/11/03 07:16:22;;;;;;;4.88;2.00;;;8.00;99.90;;;;;;5075438;28;20141;-85
2022/11/03 07:18:48;;;;;;;3.92;2.28;;;8.00;99.90;;;;;;5075480;28;20043;-87
2022/11/03 07:21:39;;;;;;;3.78;2.30;;;8.00;99.90;;;;;;5075317;28;20028;-86
2022/11/03 07:24:19;;;;;;;5.22;2.60;;;8.10;99.90;;;;;;5076024;28;20052;-86
2022/11/03 07:26:45;;;;;;;4.20;2.30;;;8.20;99.90;;;;;;5075251;28;20039;-87
2022/11/03 07:29:30;;;;;;;5.90;2.17;;;8.20;99.90;;;;;;5099155;28;20039;-84
2022/11/03 07:31:57;;;;;;;5.40;2.45;;;8.30;99.90;;;;;;5090535;28;20032;-87
2022/11/03 07:34:27;;;;;;;4.75;1.90;;;8.40;99.90;;;;;;5113188;28;20027;-81
2022/11/03 07:36:55;;;;;;;4.40;2.08;;;8.40;99.90;;;;;;5095381;28;20515;-87
2022/11/03 07:39:21;;;;;;;4.90;2.15;;;8.50;99.90;;;;;;5113413;28;20040;-85
2022/11/03 07:41:47;;;;;;;8.43;3.45;;;8.50;99.90;;;;;;5095546;28;20106;-90
2022/11/03 07:44:19;;;;;;;6.07;3.20;;;8.50;99.90;;;;;;5095883;28;20028;-89
2022/11/03 07:46:45;;;;;;;10.52;3.08;;;8.50;99.90;;;;;;5096618;28;20020;-89
2022/11/03 07:49:29;;;;;;;7.18;3.10;;;8.50;99.90;;;;;;5117360;28;20027;-84
2022/11/03 07:51:57;;;;;;;7.15;2.60;;;8.50;99.90;;;;;;5099509;28;20023;-90
2022/11/03 07:54:28;;;;;;;5.82;2.78;;;8.50;99.90;;;;;;5099158;28;20465;-88
2022/11/03 07:56:53;;;;;;;6.55;2.75;;;8.60;99.90;;;;;;5098795;28;20465;-89
2022/11/03 07:59:31;;;;;;;8.65;2.88;;;8.70;99.90;;;;;;5099223;28;20260;-85
2022/11/03 08:01:58;;;;;;;7.72;3.10;;;8.70;99.90;;;;;;5099211;28;20110;-91
2022/11/03 08:04:26;;;;;;;9.75;2.90;;;8.60;99.90;;;;;;5098732;28;20031;-90
2022/11/03 08:06:52;;;;;;;8.30;2.67;;;8.60;99.90;;;;;;5116812;28;20051;-88
2022/11/03 08:09:18;;;;;;;6.22;3.00;;;8.60;99.90;;;;;;5098910;28;20396;-88
2022/11/03 08:11:44;;;;;;;6.35;3.00;;;8.60;99.90;;;;;;5098368;28;20015;-88
2022/11/03 08:14:10;;;;;;;7.13;2.65;;;8.60;99.90;;;;;;5098597;28;20115;-88
2022/11/03 08:16:37;;;;;;;7.07;2.67;;;8.60;99.90;;;;;;5116281;28;20059;-87
2022/11/03 08:19:02;;;;;;;12.15;6.00;;;8.60;99.90;;;;;;5116860;28;20031;-88
2022/11/03 08:21:28;;;;;;;13.95;3.83;;;8.70;99.90;;;;;;5116042;28;20030;-86
2022/11/03 08:23:54;;;;;;;5.25;2.92;;;8.70;99.90;;;;;;5098866;28;20114;-84
2022/11/03 08:26:20;;;;;;;7.68;3.58;;;8.70;99.90;;;;;;5116649;28;20038;-84
2022/11/03 08:28:45;;;;;;;11.48;3.22;;;8.80;99.90;;;;;;5097840;28;20027;-87
2022/11/03 08:31:11;;;;;;;10.98;2.95;;;8.70;99.90;;;;;;5116885;28;20031;-85
2022/11/03 08:33:37;;;;;;;8.65;2.67;;;8.80;99.90;;;;;;5098233;28;20024;-86
2022/11/03 08:36:03;;;;;;;7.32;2.55;;;8.90;99.90;;;;;;5116434;28;20035;-85
2022/11/03 08:38:29;;;;;;;5.32;2.83;;;8.90;99.90;;;;;;5115632;28;20113;-84
2022/11/03 08:40:55;;;;;;;8.77;3.60;;;8.90;99.90;;;;;;5116332;28;20032;-89
2022/11/03 08:43:21;;;;;;;10.23;3.88;;;9.00;99.90;;;;;;5098487;28;20024;-89
2022/11/03 08:45:52;;;;;;;9.15;3.38;;;9.00;99.90;;;;;;5097585;28;20026;-87
2022/11/03 08:48:26;;;;;;;5.65;3.10;;;9.20;99.90;;;;;;5098427;28;20491;-88
2022/11/03 08:50:55;;;;;;;10.85;3.63;;;9.30;99.90;;;;;;5097630;28;20024;-84
2022/11/03 08:53:25;;;;;;;8.18;3.35;;;9.40;99.90;;;;;;5097985;28;20026;-86
2022/11/03 08:55:55;;;;;;;7.18;3.45;;;9.50;99.90;;;;;;5098351;28;20024;-84
2022/11/03 08:58:21;;;;;;;8.63;3.22;;;9.60;99.90;;;;;;5097633;28;20472;-84
2022/11/03 09:00:47;;;;;;;6.75;3.25;;;9.70;99.90;;;;;;5096991;28;20049;-85
2022/11/03 09:03:13;;;;;;;10.88;2.97;;;9.80;99.90;;;;;;5097912;28;20031;-86
2022/11/03 09:05:39;;;;;;;8.00;2.88;;;9.80;99.90;;;;;;5115045;28;20020;-87
2022/11/03 09:08:05;;;;;;;8.63;3.10;;;9.80;99.90;;;;;;5115685;28;20491;-90
2022/11/03 09:10:31;;;;;;;11.25;3.30;;;9.90;99.90;;;;;;5115468;28;20020;-86
2022/11/03 09:12:56;;;;;;;7.00;2.50;;;10.00;99.90;;;;;;5097284;28;20027;-85
2022/11/03 09:15:22;;;;;;;6.53;2.80;;;10.10;99.90;;;;;;5097366;28;20043;-85
2022/11/03 09:17:47;;;;;;;6.88;2.45;;;10.10;99.90;;;;;;5114254;28;20476;-83
2022/11/03 09:20:13;;;;;;;8.05;2.90;;;10.20;99.90;;;;;;5097431;28;20114;-83
2022/11/03 09:22:39;;;;;;;12.07;3.38;;;10.30;99.90;;;;;;5094131;28;20453;-82
2022/11/03 09:25:05;;;;;;;6.25;2.95;;;10.40;99.90;;;;;;5093783;28;20075;-82
2022/11/03 09:27:31;;;;;;;10.38;3.13;;;10.40;99.90;;;;;;5096998;28;20023;-81
2022/11/03 09:29:56;;;;;;;6.57;2.50;;;10.40;99.90;;;;;;5096424;28;20044;-81
2022/11/03 09:32:22;;;;;;;5.82;2.47;;;10.50;99.90;;;;;;5095425;28;20027;-80
2022/11/03 09:34:48;;;;;;;7.43;2.92;;;10.60;99.90;;;;;;5075579;28;20449;-79
2022/11/03 09:37:14;;;;;;;6.90;3.03;;;10.60;99.90;;;;;;5104808;28;20031;-79
2022/11/03 09:39:40;;;;;;;7.53;3.10;;;10.60;99.90;;;;;;5095814;28;20034;-79
2022/11/03 09:42:06;;;;;;;5.03;2.60;;;10.70;99.90;;;;;;5094877;28;20106;-79
2022/11/03 09:44:34;;;;;;;6.85;2.90;;;10.80;99.90;;;;;;5075649;28;20024;-79
2022/11/03 09:47:01;;;;;;;6.32;3.00;;;10.80;99.90;;;;;;5084727;28;20028;-80
2022/11/03 09:49:31;;;;;;;7.20;3.17;;;10.80;99.90;;;;;;5091380;28;20122;-80
2022/11/03 09:51:57;;;;;;;7.53;3.08;;;10.80;99.90;;;;;;5096565;28;20476;-81
2022/11/03 09:54:23;;;;;;;7.15;3.35;;;10.90;99.90;;;;;;5094759;28;20023;-79
2022/11/03 09:56:49;;;;;;;4.10;2.63;;;11.00;99.90;;;;;;5095957;28;20023;-76
2022/11/03 09:59:20;;;;;;;8.82;3.10;;;11.00;99.90;;;;;;5094713;28;20031;-76
2022/11/03 10:01:48;;;;;;;8.35;3.30;;;11.00;99.90;;;;;;5095028;28;20372;-75
2022/11/03 10:04:17;;;;;;;14.38;3.40;;;11.00;99.90;;;;;;5095401;28;20536;-77
2022/11/03 10:06:43;;;;;;;9.18;3.38;;;11.00;99.90;;;;;;5093580;28;20031;-76
2022/11/03 10:09:14;;;;;;;6.53;3.20;;;11.00;99.90;;;;;;5086232;28;20036;-82
2022/11/03 10:11:40;;;;;;;10.40;3.80;;;11.10;99.90;;;;;;5093480;28;20027;-81
2022/11/03 10:14:11;;;;;;;9.55;4.07;;;11.10;99.90;;;;;;5093779;28;20494;-81
2022/11/03 10:16:39;;;;;;;10.43;4.18;;;11.20;99.90;;;;;;5075983;28;20059;-82
2022/11/03 10:19:07;;;;;;;9.15;3.85;;;11.20;99.90;;;;;;5085650;28;20132;-78
2022/11/03 10:21:33;;;;;;;6.60;3.60;;;11.30;99.90;;;;;;5095209;28;20469;-79
2022/11/03 10:23:59;;;;;;;8.55;3.25;;;11.40;99.90;;;;;;5092262;28;20027;-81
2022/11/03 10:26:25;;;;;;;14.73;3.53;;;11.50;99.90;;;;;;5092067;28;20034;-79
2022/11/03 10:29:18;;;;;;;7.97;3.58;;;11.60;99.90;;;;;;5094948;28;20023;-78
2022/11/03 10:31:48;;;;;;;10.20;4.25;;;11.60;99.90;;;;;;5078912;28;20516;-78
2022/11/03 10:34:33;;;;;;;11.02;4.40;;;11.70;99.90;;;;;;5091695;28;20035;-78
2022/11/03 10:37:21;;;;;;;10.27;3.95;;;11.60;99.90;;;;;;5075174;28;20028;-78
2022/11/03 10:39:49;;;;;;;17.20;4.50;;;11.60;99.90;;;;;;5093351;28;20043;-76
2022/11/03 10:42:26;;;;;;;11.98;3.90;;;11.70;99.90;;;;;;5110966;28;20024;-77
2022/11/03 10:45:16;;;;;;;9.73;4.10;;;11.70;99.90;;;;;;5093477;28;20024;-74
2022/11/03 10:47:43;;;;;;;12.02;3.95;;;11.80;99.90;;;;;;5111674;28;20046;-75
2022/11/03 10:50:26;;;;;;;7.03;3.58;;;11.80;99.90;;;;;;5092758;28;20051;-79
2022/11/03 10:52:52;;;;;;;10.65;3.60;;;11.80;99.90;;;;;;5092145;28;20028;-78
2022/11/03 10:55:21;;;;;;;6.82;3.15;;;11.90;99.90;;;;;;5079738;28;20021;-78
2022/11/03 10:57:46;;;;;;;14.00;3.90;;;12.00;99.90;;;;;;5111937;28;20116;-79
2022/11/03 11:00:15;;;;;;;13.68;3.83;;;12.00;99.90;;;;;;5092577;28;20452;-78
2022/11/03 11:02:42;;;;;;;11.68;3.78;;;12.00;99.90;;;;;;5111396;28;20433;-77
2022/11/03 11:05:22;;;;;;;9.05;3.97;;;12.00;99.90;;;;;;5093190;28;20031;-77
2022/11/03 11:07:50;;;;;;;9.32;3.83;;;12.00;99.90;;;;;;5111616;28;20300;-77
2022/11/03 11:10:28;;;;;;;9.02;3.50;;;12.10;99.90;;;;;;5082721;28;20472;-78
2022/11/03 11:13:12;;;;;;;8.68;3.10;;;12.20;99.90;;;;;;5094182;28;20019;-77
2022/11/03 11:15:43;;;;;;;9.60;3.83;;;12.30;99.90;;;;;;5080083;28;20035;-77
2022/11/03 11:18:10;;;;;;;8.83;3.57;;;12.40;99.90;;;;;;5075346;28;20036;-77
2022/11/03 11:20:40;;;;;;;6.85;3.42;;;12.40;99.90;;;;;;5085770;28;20321;-76
2022/11/03 11:23:27;;;;;;;11.25;3.63;;;12.50;99.90;;;;;;5092321;28;20027;-77
2022/11/03 11:26:16;;;;;;;7.70;2.92;;;12.50;99.90;;;;;;5084595;28;20077;-77
2022/11/03 11:29:03;;;;;;;8.15;2.97;;;12.60;99.90;;;;;;5083579;28;20027;-77
2022/11/03 11:31:32;;;;;;;9.13;3.00;;;12.60;99.90;;;;;;5085383;28;20044;-77
2022/11/03 11:34:17;;;;;;;12.30;3.00;;;12.60;99.90;;;;;;5095146;28;20027;-77
2022/11/03 11:37:06;;;;;;;8.60;3.55;;;12.60;99.90;;;;;;5090947;28;20074;-77
2022/11/03 11:39:32;;;;;;;6.35;3.00;;;12.60;99.90;;;;;;5091017;28;20430;-78
2022/11/03 11:42:18;;;;;;;9.32;3.28;;;12.70;99.90;;;;;;5095912;28;20406;-85
2022/11/03 11:45:17;;;;;;;10.05;3.33;;;12.60;99.90;;;;;;5116562;28;20023;-77
2022/11/03 11:47:49;;;;;;;12.70;3.05;;;12.60;99.90;;;;;;5098262;28;20024;-76
2022/11/03 11:50:28;;;;;;;5.40;2.75;;;12.60;99.90;;;;;;5094207;28;20384;-76
2022/11/03 11:53:08;;;;;;;11.32;3.40;;;12.60;99.90;;;;;;5085095;28;20027;-77
2022/11/03 11:55:50;;;;;;;5.40;3.05;;;12.50;99.90;;;;;;5097721;28;20027;-76
2022/11/03 11:58:40;;;;;;;8.38;3.33;;;12.50;99.90;;;;;;5080750;28;20047;-76
2022/11/03 12:01:29;;;;;;;10.77;3.20;;;12.50;99.90;;;;;;5087938;28;20123;-77
2022/11/03 12:03:57;;;;;;;10.25;3.60;;;12.50;99.90;;;;;;5093672;28;20023;-76
2022/11/03 12:06:39;;;;;;;7.40;2.90;;;12.50;99.90;;;;;;5112277;28;20543;-76
2022/11/03 12:09:13;;;;;;;8.93;2.90;;;12.50;99.90;;;;;;5087611;28;20039;-78
2022/11/03 12:11:41;;;;;;;9.38;3.10;;;12.60;99.90;;;;;;5097238;28;20095;-75
2022/11/03 12:14:20;;;;;;;10.18;3.08;;;12.60;99.90;;;;;;5080538;28;20384;-76
2022/11/03 12:16:46;;;;;;;8.55;2.60;;;12.60;99.90;;;;;;5090055;28;20528;-77
2022/11/03 12:19:33;;;;;;;7.55;2.85;;;12.60;99.90;;;;;;5105873;28;20111;-76
2022/11/03 12:22:00;;;;;;;11.90;2.95;;;12.60;99.90;;;;;;5098608;28;20073;-78
2022/11/03 12:24:31;;;;;;;10.77;3.00;;;12.70;99.90;;;;;;5115204;28;20055;-76
2022/11/03 12:26:58;;;;;;;9.45;2.80;;;12.70;99.90;;;;;;5088659;28;20024;-76
2022/11/03 12:29:24;;;;;;;6.88;2.88;;;12.70;99.90;;;;;;5089109;28;20047;-77
2022/11/03 12:31:50;;;;;;;5.07;2.60;;;12.80;99.90;;;;;;5080856;28;20381;-77
2022/11/03 12:34:16;;;;;;;6.20;2.63;;;12.80;99.90;;;;;;5092562;28;20450;-77
2022/11/03 12:36:45;;;;;;;5.65;2.47;;;12.80;99.90;;;;;;5082852;28;20115;-77
2022/11/03 12:39:11;;;;;;;5.90;2.35;;;12.80;99.90;;;;;;5086597;28;20040;-77
2022/11/03 12:41:37;;;;;;;11.23;2.88;;;12.80;99.90;;;;;;5090764;28;20491;-78
2022/11/03 12:44:04;;;;;;;7.72;2.22;;;12.80;99.90;;;;;;5080092;28;20035;-77
2022/11/03 12:46:29;;;;;;;8.88;2.33;;;12.80;99.90;;;;;;5096817;28;20420;-77
2022/11/03 12:48:55;;;;;;;3.60;1.95;;;12.80;99.90;;;;;;5088492;28;20064;-77
2022/11/03 12:51:22;;;;;;;6.38;2.40;;;12.90;99.90;;;;;;5088727;28;20115;-77
2022/11/03 12:53:48;;;;;;;5.35;2.15;;;12.90;99.90;;;;;;5095605;28;20039;-83
2022/11/03 12:56:15;;;;;;;5.97;2.20;;;12.90;99.90;;;;;;5096630;28;20028;-76
2022/11/03 12:58:41;;;;;;;7.85;2.63;;;12.80;99.90;;;;;;5089770;28;20473;-77
2022/11/03 13:01:07;;;;;;;8.40;2.40;;;12.70;99.90;;;;;;5076668;28;20061;-77
2022/11/03 13:03:33;;;;;;;8.35;2.60;;;12.80;99.90;;;;;;5076604;28;20028;-86
2022/11/03 13:06:00;;;;;;;6.95;1.77;;;12.80;99.90;;;;;;5092704;28;20028;-76
2022/11/03 13:08:26;;;;;;;8.05;2.60;;;12.80;99.90;;;;;;5080406;28;20544;-76
2022/11/03 13:10:51;;;;;;;6.32;2.97;;;12.80;99.90;;;;;;5088246;28;20058;-74
2022/11/03 13:13:18;;;;;;;6.47;2.70;;;12.80;99.90;;;;;;5076054;28;20028;-74
2022/11/03 13:15:44;;;;;;;5.65;1.85;;;12.90;99.90;;;;;;5076018;28;20429;-74
2022/11/03 13:18:10;;;;;;;5.85;2.00;;;12.90;99.90;;;;;;5078922;28;20123;-74
2022/11/03 13:20:36;;;;;;;3.80;1.95;;;12.90;99.90;;;;;;5095716;28;20106;-81
2022/11/03 13:23:03;;;;;;;7.50;1.98;;;13.00;99.90;;;;;;5094480;28;20030;-77
2022/11/03 13:25:29;;;;;;;6.53;2.08;;;12.90;99.90;;;;;;5086792;28;20476;-77
2022/11/03 13:27:54;;;;;;;4.43;2.08;;;13.00;99.90;;;;;;5093747;28;20107;-76
2022/11/03 13:30:22;;;;;;;5.55;1.70;;;13.00;99.90;;;;;;5095432;28;20400;-76
2022/11/03 13:32:47;;;;;;;8.40;2.10;;;12.90;99.90;;;;;;5093801;28;20032;-76